createdAt,value
2019-03-26T00:01:49.367Z,73.60
2019-03-26T00:04:20.263Z,72.97
2019-03-26T00:06:51.205Z,73.51
2019-03-26T00:09:22.102Z,73.53
2019-03-26T00:11:53.029Z,73.42
2019-03-26T00:14:23.931Z,73.19
2019-03-26T00:16:54.845Z,73.17
2019-03-26T00:19:25.743Z,73.11
2019-03-26T00:21:56.673Z,73.25
2019-03-26T00:24:27.578Z,73.14
2019-03-26T00:26:58.525Z,73.11
2019-03-26T00:29:29.407Z,73.26
2019-03-26T00:32:00.356Z,73.36
2019-03-26T00:34:31.253Z,73.56
2019-03-26T00:37:03.004Z,73.86
2019-03-26T00:39:33.899Z,73.81
2019-03-26T00:42:04.825Z,73.72
2019-03-26T00:44:35.722Z,73.85
2019-03-26T00:47:06.660Z,74.14
2019-03-26T00:49:37.478Z,74.30
2019-03-26T00:52:10.033Z,74.87
2019-03-26T00:54:40.929Z,75.43
2019-03-26T00:57:11.854Z,75.23
2019-03-26T00:59:42.769Z,75.48
2019-03-26T01:02:13.698Z,75.25
2019-03-26T01:04:44.667Z,75.31
2019-03-26T01:07:16.492Z,75.18
2019-03-26T01:09:47.383Z,75.18
2019-03-26T01:12:18.322Z,75.20
2019-03-26T01:14:49.231Z,74.43
2019-03-26T01:17:20.170Z,74.90
2019-03-26T01:19:51.075Z,74.41
2019-03-26T01:22:22.912Z,74.48
2019-03-26T01:24:53.810Z,74.54
2019-03-26T01:27:24.727Z,74.69
2019-03-26T01:29:55.631Z,74.72
2019-03-26T01:32:26.551Z,74.27
2019-03-26T01:34:57.518Z,74.53
2019-03-26T01:37:30.218Z,74.74
2019-03-26T01:40:01.126Z,74.49
2019-03-26T01:42:32.053Z,74.62
2019-03-26T01:45:02.958Z,74.50
2019-03-26T01:47:33.890Z,74.49
2019-03-26T01:50:05.196Z,74.50
2019-03-26T01:52:37.015Z,74.59
2019-03-26T01:55:07.917Z,74.39
2019-03-26T01:57:38.870Z,74.96
2019-03-26T02:00:10.862Z,74.69
2019-03-26T02:02:41.794Z,74.89
2019-03-26T02:05:12.691Z,75.44
2019-03-26T02:07:44.455Z,75.07
2019-03-26T02:10:15.344Z,75.10
2019-03-26T02:12:48.580Z,74.88
2019-03-26T02:15:30.046Z,74.97
2019-03-26T02:18:01.906Z,75.19
2019-03-26T02:20:32.795Z,75.36
2019-03-26T02:23:03.940Z,75.73
2019-03-26T02:25:34.914Z,75.37
2019-03-26T02:28:05.853Z,75.33
2019-03-26T02:30:36.759Z,75.38
2019-03-26T02:33:07.767Z,75.80
2019-03-26T02:35:38.668Z,75.85
2019-03-26T02:38:09.612Z,75.99
2019-03-26T02:40:40.490Z,75.60
2019-03-26T02:43:11.405Z,75.79
2019-03-26T02:45:42.300Z,75.99
2019-03-26T02:48:13.219Z,75.89
2019-03-26T02:50:44.119Z,76.16
2019-03-26T02:53:17.287Z,76.16
2019-03-26T02:55:48.176Z,75.71
2019-03-26T02:58:19.101Z,75.41
2019-03-26T03:00:50.012Z,75.25
2019-03-26T03:03:20.924Z,75.21
2019-03-26T03:05:51.838Z,75.35
2019-03-26T03:08:23.621Z,75.39
2019-03-26T03:10:54.593Z,75.14
2019-03-26T03:13:25.584Z,75.14
2019-03-26T03:15:56.550Z,75.54
2019-03-26T03:18:27.472Z,75.62
2019-03-26T03:20:58.402Z,75.94
2019-03-26T03:23:29.337Z,76.02
2019-03-26T03:26:00.229Z,76.33
2019-03-26T03:28:31.146Z,76.28
2019-03-26T03:31:02.061Z,76.47
2019-03-26T03:33:32.981Z,76.39
2019-03-26T03:36:03.890Z,76.50
2019-03-26T03:38:34.826Z,76.90
2019-03-26T03:41:05.728Z,76.97
2019-03-26T03:43:36.657Z,77.16
2019-03-26T03:46:07.542Z,77.00
2019-03-26T03:48:38.453Z,77.06
2019-03-26T03:51:09.444Z,77.34
2019-03-26T03:53:41.177Z,77.75
2019-03-26T03:56:14.073Z,78.00
2019-03-26T03:58:47.139Z,77.54
2019-03-26T04:01:18.029Z,77.55
2019-03-26T04:03:49.023Z,77.60
2019-03-26T04:06:19.916Z,78.03
2019-03-26T04:08:50.855Z,78.03
2019-03-26T04:11:21.762Z,78.18
2019-03-26T04:13:52.699Z,78.62
2019-03-26T04:16:23.662Z,78.77
2019-03-26T04:18:54.608Z,79.29
2019-03-26T04:21:25.490Z,78.89
2019-03-26T04:23:56.460Z,80.27
2019-03-26T04:26:27.357Z,80.27
2019-03-26T04:28:58.269Z,80.44
2019-03-26T04:31:29.173Z,80.66
2019-03-26T04:34:00.103Z,80.77
2019-03-26T04:36:31.016Z,81.81
2019-03-26T04:39:04.742Z,81.81
2019-03-26T04:41:35.816Z,81.85
2019-03-26T04:44:06.752Z,82.19
2019-03-26T04:46:37.664Z,82.71
2019-03-26T04:49:08.590Z,82.71
2019-03-26T04:51:39.495Z,82.58
2019-03-26T04:54:10.593Z,82.64
2019-03-26T04:56:41.495Z,82.32
2019-03-26T04:59:12.522Z,82.63
2019-03-26T05:01:43.416Z,82.71
2019-03-26T05:04:14.353Z,82.49
2019-03-26T05:06:45.189Z,82.57
2019-03-26T05:09:16.135Z,82.11
2019-03-26T05:11:47.027Z,81.73
2019-03-26T05:14:17.957Z,81.56
2019-03-26T05:16:48.854Z,81.67
2019-03-26T05:19:19.789Z,81.34
2019-03-26T05:21:50.688Z,81.68
2019-03-26T05:24:22.411Z,81.88
2019-03-26T05:26:53.312Z,81.61
2019-03-26T05:29:24.166Z,81.39
2019-03-26T05:31:55.074Z,81.26
2019-03-26T05:34:26.043Z,80.93
2019-03-26T05:36:56.937Z,80.69
2019-03-26T05:39:28.681Z,80.43
2019-03-26T05:41:59.581Z,80.11
2019-03-26T05:44:30.587Z,79.88
2019-03-26T05:47:01.900Z,79.59
2019-03-26T05:49:32.884Z,79.27
2019-03-26T05:52:03.792Z,79.06
2019-03-26T05:54:35.554Z,78.75
2019-03-26T05:57:06.451Z,78.67
2019-03-26T05:59:37.380Z,78.34
2019-03-26T06:02:14.229Z,78.04
2019-03-26T06:04:40.973Z,77.85
2019-03-26T06:07:11.869Z,77.54
2019-03-26T06:09:43.755Z,77.24
2019-03-26T06:12:19.129Z,76.95
2019-03-26T06:14:50.066Z,76.79
2019-03-26T06:17:20.962Z,76.57
2019-03-26T06:19:51.881Z,76.41
2019-03-26T06:22:22.784Z,76.34
2019-03-26T06:24:54.530Z,76.20
2019-03-26T06:27:25.422Z,75.98
2019-03-26T06:29:56.351Z,75.94
2019-03-26T06:32:27.266Z,75.93
2019-03-26T06:34:58.108Z,75.77
2019-03-26T06:37:29.007Z,75.55
2019-03-26T06:40:01.667Z,75.29
2019-03-26T06:42:32.583Z,75.21
2019-03-26T06:45:06.481Z,74.99
2019-03-26T06:47:37.377Z,74.78
2019-03-26T06:50:11.615Z,74.58
2019-03-26T06:52:42.516Z,74.40
2019-03-26T06:55:13.691Z,74.33
2019-03-26T06:57:44.670Z,74.37
2019-03-26T07:00:18.135Z,74.34
2019-03-26T07:02:49.027Z,74.46
2019-03-26T07:05:19.965Z,74.85
2019-03-26T07:07:50.863Z,74.82
2019-03-26T07:10:25.537Z,74.89
2019-03-26T07:12:56.742Z,75.58
2019-03-26T07:15:27.677Z,75.85
2019-03-26T07:17:58.578Z,75.87
2019-03-26T07:20:29.589Z,75.76
2019-03-26T07:23:00.489Z,76.23
2019-03-26T07:25:32.262Z,76.08
2019-03-26T07:28:04.260Z,75.87
2019-03-26T07:30:40.165Z,76.00
2019-03-26T07:33:11.241Z,76.08
2019-03-26T07:35:42.333Z,75.94
2019-03-26T07:38:13.238Z,75.84
2019-03-26T07:40:45.758Z,75.40
2019-03-26T07:43:16.655Z,74.55
2019-03-26T07:45:48.385Z,73.74
2019-03-26T07:48:19.294Z,72.98
2019-03-26T07:50:50.209Z,72.94
2019-03-26T07:53:21.095Z,72.44
2019-03-26T07:55:52.070Z,71.90
2019-03-26T07:58:22.968Z,71.79
2019-03-26T08:00:53.970Z,72.00
2019-03-26T08:03:24.864Z,72.56
2019-03-26T08:05:55.789Z,72.83
2019-03-26T08:08:26.695Z,73.32
2019-03-26T08:10:58.473Z,73.63
2019-03-26T08:13:29.371Z,73.63
2019-03-26T08:16:00.298Z,73.36
2019-03-26T08:18:31.272Z,73.42
2019-03-26T08:21:02.278Z,73.23
2019-03-26T08:23:33.173Z,73.33
2019-03-26T08:26:08.447Z,73.44
2019-03-26T08:28:39.353Z,73.81
2019-03-26T08:31:10.351Z,74.29
2019-03-26T08:33:41.257Z,73.96
2019-03-26T08:36:12.182Z,74.46
2019-03-26T08:38:43.113Z,74.35
2019-03-26T08:41:15.603Z,73.74
2019-03-26T08:43:46.503Z,73.73
2019-03-26T08:46:17.430Z,73.81
2019-03-26T08:48:48.329Z,74.13
2019-03-26T08:51:19.988Z,72.97
2019-03-26T08:53:50.879Z,71.80
2019-03-26T08:56:21.832Z,70.69
2019-03-26T08:58:52.732Z,70.57
2019-03-26T09:01:23.655Z,70.33
2019-03-26T09:03:54.561Z,70.38
2019-03-26T09:06:25.472Z,70.74
2019-03-26T09:08:56.379Z,70.76
2019-03-26T09:11:29.839Z,71.81
2019-03-26T09:14:00.801Z,71.84
2019-03-26T09:16:31.758Z,73.03
2019-03-26T09:19:02.653Z,73.25
2019-03-26T09:21:33.563Z,73.58
2019-03-26T09:24:04.456Z,73.97
2019-03-26T09:26:35.402Z,74.01
2019-03-26T09:29:06.303Z,74.65
2019-03-26T09:31:37.220Z,75.13
2019-03-26T09:34:09.980Z,73.49
2019-03-26T09:36:40.731Z,73.31
2019-03-26T09:39:11.695Z,73.94
2019-03-26T09:41:44.204Z,72.99
2019-03-26T09:44:15.101Z,69.96
2019-03-26T09:46:46.027Z,68.62
2019-03-26T09:49:16.930Z,68.42
2019-03-26T09:51:47.845Z,67.15
2019-03-26T09:54:18.744Z,66.33
2019-03-26T09:56:50.499Z,66.08
2019-03-26T09:59:21.395Z,66.17
2019-03-26T10:01:52.324Z,65.49
2019-03-26T10:04:23.212Z,64.76
2019-03-26T10:06:54.132Z,65.23
2019-03-26T10:09:25.031Z,65.03
2019-03-26T10:11:56.775Z,63.62
2019-03-26T10:14:27.669Z,62.37
2019-03-26T10:16:58.626Z,61.63
2019-03-26T10:19:29.522Z,61.04
2019-03-26T10:22:00.523Z,60.90
2019-03-26T10:24:31.415Z,59.98
2019-03-26T10:27:02.363Z,58.83
2019-03-26T10:29:33.244Z,58.69
2019-03-26T10:32:04.171Z,58.11
2019-03-26T10:34:36.606Z,57.37
2019-03-26T10:37:07.660Z,57.72
2019-03-26T10:39:38.556Z,58.51
2019-03-26T10:42:11.896Z,59.08
2019-03-26T10:44:42.860Z,59.18
2019-03-26T10:47:13.806Z,58.83
2019-03-26T10:49:44.711Z,58.46
2019-03-26T10:52:15.736Z,57.14
2019-03-26T10:54:46.623Z,57.24
2019-03-26T10:57:21.725Z,56.16
2019-03-26T10:59:51.228Z,53.71
2019-03-26T11:02:22.161Z,54.74
2019-03-26T11:04:53.056Z,55.19
2019-03-26T11:07:23.975Z,54.42
2019-03-26T11:09:54.933Z,54.50
2019-03-26T11:12:26.832Z,54.22
2019-03-26T11:15:00.383Z,54.61
2019-03-26T11:17:31.264Z,54.94
2019-03-26T11:20:02.166Z,54.91
2019-03-26T11:22:33.086Z,54.46
2019-03-26T11:25:05.363Z,53.33
2019-03-26T11:27:37.208Z,54.72
2019-03-26T11:30:08.992Z,54.33
2019-03-26T11:32:39.911Z,54.33
2019-03-26T11:35:10.995Z,53.33
2019-03-26T11:37:43.325Z,53.12
2019-03-26T11:40:14.396Z,52.74
2019-03-26T11:42:46.978Z,52.50
2019-03-26T11:45:17.845Z,51.57
2019-03-26T11:47:48.771Z,50.34
2019-03-26T11:50:19.931Z,49.57
2019-03-26T11:52:50.856Z,47.58
2019-03-26T11:55:22.111Z,49.24
2019-03-26T11:57:53.823Z,49.31
2019-03-26T12:00:32.126Z,49.52
2019-03-26T12:03:03.023Z,49.92
2019-03-26T12:05:33.979Z,49.78
2019-03-26T12:08:04.899Z,50.21
2019-03-26T12:10:35.798Z,48.13
2019-03-26T12:13:07.560Z,49.88
2019-03-26T12:15:40.296Z,50.29
2019-03-26T12:18:11.237Z,50.03
2019-03-26T12:20:42.121Z,49.47
2019-03-26T12:23:13.114Z,50.54
2019-03-26T12:25:44.004Z,50.24
2019-03-26T12:28:15.043Z,49.11
2019-03-26T12:30:45.938Z,48.87
2019-03-26T12:33:16.871Z,47.88
2019-03-26T12:35:47.757Z,46.56
2019-03-26T12:38:19.586Z,46.38
2019-03-26T12:40:50.618Z,46.95
2019-03-26T12:43:22.523Z,48.04
2019-03-26T12:45:53.442Z,47.84
2019-03-26T12:48:24.377Z,47.67
2019-03-26T12:50:55.271Z,48.01
2019-03-26T12:53:26.205Z,47.17
2019-03-26T12:55:57.142Z,47.71
2019-03-26T12:58:32.025Z,47.38
2019-03-26T13:01:01.704Z,47.65
2019-03-26T13:03:34.237Z,46.33
2019-03-26T13:06:05.105Z,46.10
2019-03-26T13:08:36.025Z,45.04
2019-03-26T13:11:06.933Z,46.40
2019-03-26T13:13:38.669Z,47.06
2019-03-26T13:16:09.593Z,47.70
2019-03-26T13:18:40.512Z,47.78
2019-03-26T13:21:11.413Z,47.65
2019-03-26T13:23:42.331Z,47.76
2019-03-26T13:26:13.230Z,47.62
2019-03-26T13:28:46.997Z,47.72
2019-03-26T13:31:17.880Z,48.14
2019-03-26T13:33:48.799Z,48.58
2019-03-26T13:37:14.511Z,48.75
2019-03-26T13:39:48.413Z,49.11
2019-03-26T13:42:19.345Z,48.85
2019-03-26T13:44:52.078Z,49.15
2019-03-26T13:47:22.991Z,49.01
2019-03-26T13:49:54.020Z,48.76
2019-03-26T13:52:24.928Z,48.61
2019-03-26T13:54:55.908Z,48.29
2019-03-26T13:57:26.902Z,48.59
2019-03-26T13:59:57.829Z,48.27
2019-03-26T14:02:28.723Z,48.12
2019-03-26T14:04:59.717Z,48.80
2019-03-26T14:07:30.621Z,49.05
2019-03-26T14:10:01.578Z,49.12
2019-03-26T14:12:32.451Z,49.07
2019-03-26T14:15:04.640Z,49.16
2019-03-26T14:17:35.571Z,49.53
2019-03-26T14:20:07.191Z,48.60
2019-03-26T14:22:38.087Z,48.59
2019-03-26T14:25:09.209Z,49.30
2019-03-26T14:27:40.118Z,49.43
2019-03-26T14:30:14.290Z,49.02
2019-03-26T14:32:45.215Z,48.72
2019-03-26T14:35:16.166Z,48.99
2019-03-26T14:37:51.564Z,49.66
2019-03-26T14:40:19.763Z,49.19
2019-03-26T14:42:51.949Z,48.83
2019-03-26T14:45:26.305Z,49.09
2019-03-26T14:47:57.273Z,49.39
2019-03-26T14:50:28.243Z,49.70
2019-03-26T14:52:59.138Z,50.27
2019-03-26T14:55:30.875Z,50.25
2019-03-26T14:58:01.783Z,50.35
2019-03-26T15:00:33.551Z,50.47
2019-03-26T15:03:04.475Z,50.81
2019-03-26T15:05:35.420Z,50.71
2019-03-26T15:08:06.427Z,50.54
2019-03-26T15:10:37.372Z,50.18
2019-03-26T15:13:08.258Z,49.78
2019-03-26T15:15:40.026Z,49.66
2019-03-26T15:18:10.922Z,49.77
2019-03-26T15:20:41.854Z,50.07
2019-03-26T15:23:12.758Z,50.34
2019-03-26T15:25:43.757Z,50.41
2019-03-26T15:28:14.643Z,50.75
2019-03-26T15:30:45.709Z,50.75
2019-03-26T15:33:16.605Z,51.13
2019-03-26T15:35:47.541Z,51.24
2019-03-26T15:38:18.459Z,51.58
2019-03-26T15:40:49.404Z,51.73
2019-03-26T15:43:20.293Z,52.05
2019-03-26T15:45:53.235Z,52.57
2019-03-26T15:48:24.141Z,52.41
2019-03-26T15:50:55.077Z,52.59
2019-03-26T15:53:25.986Z,52.94
2019-03-26T15:55:56.914Z,52.77
2019-03-26T15:58:27.825Z,52.74
2019-03-26T16:00:59.802Z,53.11
2019-03-26T16:03:30.692Z,53.11
2019-03-26T16:06:01.620Z,53.27
2019-03-26T16:08:35.811Z,52.06
2019-03-26T16:11:05.421Z,52.26
2019-03-26T16:13:36.319Z,52.42
2019-03-26T16:16:07.289Z,52.90
2019-03-26T16:18:38.177Z,53.10
2019-03-26T16:21:09.104Z,53.37
2019-03-26T16:23:40.015Z,53.83
2019-03-26T16:26:10.942Z,54.09
2019-03-26T16:28:41.835Z,54.54
2019-03-26T16:31:13.628Z,54.92
2019-03-26T16:33:44.520Z,55.13
2019-03-26T16:36:15.490Z,55.27
2019-03-26T16:38:46.345Z,55.53
2019-03-26T16:41:17.260Z,55.83
2019-03-26T16:43:48.151Z,56.30
2019-03-26T16:46:21.518Z,56.18
2019-03-26T16:48:52.479Z,56.50
2019-03-26T16:51:23.390Z,56.83
2019-03-26T16:53:54.289Z,57.19
2019-03-26T16:56:25.204Z,57.74
2019-03-26T16:58:56.112Z,57.97
2019-03-26T17:01:27.909Z,58.14
2019-03-26T17:03:58.809Z,58.47
2019-03-26T17:06:29.722Z,58.62
2019-03-26T17:09:00.642Z,58.79
2019-03-26T17:11:31.570Z,58.84
2019-03-26T17:14:02.468Z,59.01
2019-03-26T17:16:34.210Z,59.29
2019-03-26T17:19:05.121Z,59.53
2019-03-26T17:21:36.036Z,59.31
2019-03-26T17:24:06.928Z,59.72
2019-03-26T17:26:37.920Z,59.92
2019-03-26T17:29:08.814Z,60.77
2019-03-26T17:31:40.554Z,60.88
2019-03-26T17:34:11.515Z,60.82
2019-03-26T17:36:42.452Z,60.53
2019-03-26T17:39:13.353Z,60.66
2019-03-26T17:41:44.282Z,61.04
2019-03-26T17:44:15.189Z,61.06
2019-03-26T17:46:49.517Z,61.47
2019-03-26T17:49:20.428Z,62.00
2019-03-26T17:51:51.349Z,62.48
2019-03-26T17:54:22.258Z,62.97
2019-03-26T17:56:53.177Z,63.14
2019-03-26T17:59:24.072Z,63.14
2019-03-26T18:01:59.847Z,63.11
2019-03-26T18:04:31.871Z,63.20
2019-03-26T18:07:05.433Z,63.49
2019-03-26T18:09:35.486Z,63.61
2019-03-26T18:12:06.428Z,63.82
2019-03-26T18:14:37.331Z,63.86
2019-03-26T18:17:09.188Z,63.85
2019-03-26T18:19:40.158Z,64.07
2019-03-26T18:22:11.091Z,64.30
2019-03-26T18:27:31.876Z,64.80
2019-03-26T18:30:02.859Z,64.78
2019-03-26T18:32:34.790Z,64.70
2019-03-26T18:35:06.499Z,65.15
2019-03-26T18:37:37.452Z,65.25
2019-03-26T18:40:08.360Z,65.09
2019-03-26T18:42:44.358Z,64.91
2019-03-26T18:45:13.075Z,64.87
2019-03-26T18:47:46.566Z,65.18
2019-03-26T18:50:17.669Z,64.82
2019-03-26T18:52:48.622Z,64.85
2019-03-26T18:55:19.534Z,65.22
2019-03-26T18:57:50.475Z,65.05
2019-03-26T19:00:36.155Z,65.00
2019-03-26T19:03:09.110Z,65.20
2019-03-26T19:05:40.030Z,65.43
2019-03-26T19:08:10.965Z,65.62
2019-03-26T19:10:41.879Z,65.79
2019-03-26T19:13:19.261Z,65.91
2019-03-26T19:15:45.416Z,65.60
2019-03-26T19:18:17.204Z,65.60
2019-03-26T19:21:01.026Z,65.73
2019-03-26T19:23:20.738Z,65.75
2019-03-26T19:25:51.636Z,65.96
2019-03-26T19:28:23.416Z,65.95
2019-03-26T19:30:54.344Z,65.95
2019-03-26T19:33:25.393Z,66.10
2019-03-26T19:35:56.293Z,66.10
2019-03-26T19:38:27.235Z,66.20
2019-03-26T19:40:58.152Z,66.16
2019-03-26T19:43:29.088Z,66.17
2019-03-26T19:46:00.018Z,66.17
2019-03-26T19:48:33.374Z,66.45
2019-03-26T19:51:04.299Z,66.39
2019-03-26T19:53:35.232Z,66.37
2019-03-26T19:56:06.162Z,66.50
2019-03-26T19:58:37.099Z,66.69
2019-03-26T20:01:08.079Z,67.01
2019-03-26T20:03:39.180Z,67.01
2019-03-26T20:06:13.678Z,67.09
2019-03-26T20:08:46.214Z,67.36
2019-03-26T20:11:17.128Z,67.15
2019-03-26T20:13:48.064Z,67.21
2019-03-26T20:16:18.987Z,67.37
2019-03-26T20:18:54.802Z,67.45
2019-03-26T20:21:25.717Z,67.59
2019-03-26T20:23:56.720Z,68.15
2019-03-26T20:26:27.708Z,68.24
2019-03-26T20:28:58.646Z,68.07
2019-03-26T20:31:29.568Z,68.13
2019-03-26T20:34:02.376Z,67.98
2019-03-26T20:36:33.348Z,67.97
2019-03-26T20:39:06.172Z,68.33
2019-03-26T20:41:37.072Z,68.33
2019-03-26T20:44:08.037Z,68.62
2019-03-26T20:46:38.948Z,68.62
2019-03-26T20:49:10.771Z,68.74
2019-03-26T20:51:41.698Z,69.22
2019-03-26T20:54:12.735Z,69.85
2019-03-26T20:56:43.642Z,70.10
2019-03-26T20:59:14.774Z,70.10
2019-03-26T21:01:45.742Z,69.97
2019-03-26T21:04:19.262Z,70.17
2019-03-26T21:06:50.166Z,70.22
2019-03-26T21:09:21.114Z,70.39
2019-03-26T21:11:52.018Z,70.44
2019-03-26T21:14:22.965Z,70.42
2019-03-26T21:16:53.857Z,70.58
2019-03-26T21:19:25.718Z,70.71
2019-03-26T21:21:56.622Z,71.15
2019-03-26T21:24:27.630Z,71.53
2019-03-26T21:26:58.614Z,72.18
2019-03-26T21:29:30.394Z,72.31
2019-03-26T21:32:01.299Z,72.35
2019-03-26T21:34:33.506Z,72.83
2019-03-26T21:37:04.386Z,72.49
2019-03-26T21:39:35.363Z,72.48
2019-03-26T21:42:06.239Z,72.60
2019-03-26T21:44:37.246Z,72.92
2019-03-26T21:47:08.158Z,72.86
2019-03-26T21:49:40.875Z,73.22
2019-03-26T21:52:11.790Z,73.16
2019-03-26T21:54:46.906Z,73.31
2019-03-26T21:57:17.872Z,73.55
2019-03-26T21:59:48.808Z,73.26
2019-03-26T22:02:19.745Z,73.32
2019-03-26T22:04:51.726Z,72.75
2019-03-26T22:07:22.646Z,73.18
2019-03-26T22:09:53.592Z,73.46
2019-03-26T22:12:24.496Z,72.95
2019-03-26T22:14:55.440Z,72.94
2019-03-26T22:17:26.348Z,72.81
2019-03-26T22:19:58.096Z,73.58
2019-03-26T22:22:29.018Z,72.99
2019-03-26T22:24:59.968Z,73.13
2019-03-26T22:27:30.862Z,72.83
2019-03-26T22:30:01.905Z,72.75
2019-03-26T22:32:32.818Z,72.91
2019-03-26T22:35:04.962Z,73.40
2019-03-26T22:37:35.868Z,73.07
2019-03-26T22:40:08.306Z,72.98
2019-03-26T22:42:39.210Z,72.90
2019-03-26T22:45:18.940Z,72.81
2019-03-26T22:47:45.882Z,72.97
2019-03-26T22:50:18.040Z,72.68
2019-03-26T22:52:48.942Z,72.86
2019-03-26T22:55:19.894Z,72.45
2019-03-26T22:57:50.794Z,73.07
2019-03-26T23:00:22.229Z,73.64
2019-03-26T23:02:53.194Z,73.82
2019-03-26T23:05:24.310Z,73.63
2019-03-26T23:07:55.284Z,73.54
2019-03-26T23:10:26.222Z,73.47
2019-03-26T23:12:57.138Z,73.73
2019-03-26T23:15:28.562Z,74.11
2019-03-26T23:17:59.466Z,74.41
2019-03-26T23:20:30.416Z,74.78
2019-03-26T23:23:01.326Z,74.44
2019-03-26T23:25:32.264Z,74.44
2019-03-26T23:28:03.168Z,74.67
2019-03-26T23:30:34.108Z,75.35
2019-03-26T23:33:05.109Z,75.16
2019-03-26T23:35:36.866Z,75.12
2019-03-26T23:38:07.767Z,75.15
2019-03-26T23:40:38.702Z,75.10
2019-03-26T23:43:09.629Z,75.19
2019-03-26T23:45:40.563Z,75.47
2019-03-26T23:48:11.475Z,75.30
2019-03-26T23:50:44.005Z,75.19
2019-03-26T23:53:14.912Z,75.40
2019-03-26T23:55:45.853Z,75.04
2019-03-26T23:58:16.766Z,75.18
